• Join FlightAware (Why Join?)
  • Login
  • US Flag 
06:26AM EDT


 

Airport Tracker/Info


-or-


 

Live Flight TrackerFlight Track Log ✈ RAX289 ✈ 20-Jun-2013 ✈ KIOW - KLNK

Flight Track Log - Related Links

Times and Time Zones

All times are in EDT time to prevent confusion due to time zone crossing. See the RAX289 flight status page for this flight to view local times or setup timezone preferences in your user account.

Time Position Orientation Groundspeed Altitude Reporting Facility
EDT Latitude Longitude Course Direction KTS MPH feet Rate Location/Type
06:44PM 41.6114 -91.5325 75° East 227 261 5,100  Level Chicago Center
06:45PM 41.6297 -91.4386 75° East 270 311 8,500 2,940 Climbing Chicago Center
06:46PM 41.6497 -91.3278 76° East 301 346 11,200 2,700 Climbing Chicago Center
06:47PM 41.6739 -91.2006 76° East 351 404 14,200 2,520 Climbing Chicago Center
06:48PM 41.7039 -91.0417 76° East 373 429 16,500 1,980 Climbing Chicago Center
06:49PM 41.7333 -90.8989 75° East 400 460 18,300 1,920 Climbing Chicago Center
06:50PM 41.7625 -90.7525 75° East 409 471 20,500 1,980 Climbing Chicago Center
06:51PM 41.7847 -90.6083 78° East 410 472 22,400 1,200 Climbing Chicago Center
06:52PM 41.8139 -90.4217 78° East 423 487 23,000 900 Climbing Chicago Center
06:53PM 41.8419 -90.2564 77° East 451 519 24,300 1,500 Climbing Chicago Center
06:54PM 41.8733 -90.1006 75° East 441 507 26,200 1,740 Climbing Chicago Center
06:55PM 41.9053 -89.9489 74° East 430 495 27,900 1,680 Climbing Chicago Center
06:56PM 41.9406 -89.7842 74° East 427 491 29,700 1,680 Climbing Chicago Center
06:58PM 41.9568 -89.6159 75° East  Level FlightAware Approximate
06:58PM 41.9961 -89.4481 75° East 425 489 33,300  Level Chicago Center
06:59PM 42.0556 -89.3333 55° Northeast 402 463 34,800 1,200 Climbing Chicago Center
07:01PM 42.1606 -89.3792 342° North 398 458 35,800 960 Climbing Chicago Center
07:02PM 42.1669 -89.5294 273° West 406 467 36,800 1,260 Climbing Chicago Center
07:03PM 42.1469 -89.6825 260° West 411 473 38,500 1,620 Climbing Chicago Center
07:04PM 42.1264 -89.8281 259° West 399 459 40,200 1,200 Climbing Chicago Center
07:05PM 42.1053 -89.9686 259° West 391 450 41,000 360 Climbing Chicago Center
07:06PM 42.0789 -90.1492 259° West 410 472 41,000  Level Chicago Center
07:07PM 42.0589 -90.3000 260° West 412 474 41,000  Level Chicago Center
07:08PM 42.0358 -90.4519 259° West 417 480 41,000  Level Chicago Center
07:09PM 42.0147 -90.6053 260° West 420 483 41,000  Level Chicago Center
07:10PM 41.9944 -90.7644 260° West 425 489 41,000  Level Chicago Center
07:11PM 41.9700 -90.9483 260° West 425 489 41,000  Level Chicago Center
07:12PM 41.9506 -91.1014 260° West 421 484 41,000  Level Chicago Center
07:13PM 41.9292 -91.2567 260° West 424 488 41,000  Level Chicago Center
07:14PM 41.9053 -91.4119 258° West 426 490 41,000  Level Chicago Center
07:15PM 41.8808 -91.5672 258° West 428 493 41,000  Level Chicago Center
07:16PM 41.8511 -91.7503 258° West 423 487 41,000  Level Chicago Center
07:17PM 41.8225 -91.9056 256° West 429 494 41,000  Level Chicago Center
07:18PM 41.7931 -92.0586 256° West 428 493 41,000  Level Chicago Center
07:19PM 41.7642 -92.2108 256° West 426 490 41,000  Level Chicago Center
07:20PM 41.7378 -92.3633 257° West 423 487 41,000  Level Chicago Center
07:21PM 41.7064 -92.5467 257° West 424 488 41,000  Level Chicago Center
07:22PM 41.6814 -92.6986 258° West 422 486 41,000  Level Chicago Center
07:23PM 41.6506 -92.8603 256° West 423 487 41,000  Level Chicago Center
07:24PM 41.6231 -93.0100 256° West 422 486 41,000  Level Chicago Center
07:25PM 41.5964 -93.1617 257° West 425 489 41,000  Level Chicago Center
07:26PM 41.5681 -93.3139 256° West 427 491 41,000  Level Chicago Center
07:27PM 41.5411 -93.4650 257° West 425 489 41,000  Level Chicago Center
07:28PM 41.5094 -93.6467 257° West 422 486 41,000  Level Chicago Center
07:29PM 41.4800 -93.7964 255° West 423 487 41,000  Level Chicago Center
07:31PM 41.4511 -93.9461 256° West 422 486 41,000  Level Chicago Center
07:31PM 41.4347 -94.0347 256° West 424 488 41,000  Level Minneapolis Center
07:32PM 41.4067 -94.1847 256° West 423 487 41,000 -180 Level Minneapolis Center
07:33PM 41.3714 -94.3608 255° West 425 489 40,700 -600 Descending Minneapolis Center
07:34PM 41.3417 -94.5128 255° West 425 489 39,800 -960 Descending Minneapolis Center
07:35PM 41.3133 -94.6614 256° West 419 482 38,800 -1,020 Descending Minneapolis Center
07:36PM 41.2808 -94.8081 254° West 416 479 37,800 -900 Descending Minneapolis Center
07:37PM 41.2461 -94.9561 253° West 417 480 37,000 -960 Descending Minneapolis Center
07:38PM 41.2036 -95.1400 253° West 429 494 35,900 -1,380 Descending Minneapolis Center
07:39PM 41.1847 -95.2619 258° West 420 483 34,400 -2,820 Descending Minneapolis Center
07:41PM 41.1397 -95.4558 253° West 421 484 29,800 -4,020 Descending Minneapolis Center
07:41PM 41.1033 -95.5931 251° West 433 498 25,600 -4,740 Descending Minneapolis Center
07:42PM 41.0658 -95.7497 252° West 447 514 20,800 -4,680 Descending Minneapolis Center
07:43PM 41.0344 -95.9053 255° West 422 486 16,200 -4,200 Descending Minneapolis Center
07:44PM 41.0158 -96.0375 259° West 337 388 12,400 -3,600 Descending Minneapolis Center
07:45PM 41.0003 -96.1550 260° West 284 327 8,900 -3,360 Descending Minneapolis Center
07:46PM 40.9792 -96.2486 253° West 261 300 5,700 -1,980 Descending Minneapolis Center
07:47PM 40.9619 -96.3414 256° West 264 304 5,000 -360 Descending Minneapolis Center
07:49PM 40.9478 -96.4506 260° West 270 311 5,000 -420 Level Minneapolis Center
07:50PM 40.9350 -96.5486 260° West 250 288 4,200 -660 Descending Minneapolis Center
07:51PM 40.9225 -96.6519 261° West 232 267 3,600 -720 Descending Minneapolis Center
07:52PM 40.9217 -96.7072 269° West 191 220 2,900 -840 Descending Minneapolis Center
07:53PM 40.8989 -96.7481 234° Southwest 115 132 2,100 -720 Descending Minneapolis Center
07:54PM 40.8675 -96.7458 177° South 111 128 1,500 -600 Descending Minneapolis Center